createdAt,value
2022-11-21T00:00:53.512Z,75.88
2022-11-21T00:03:20.139Z,76.04
2022-11-21T00:05:47.404Z,75.60
2022-11-21T00:08:15.139Z,75.09
2022-11-21T00:10:42.377Z,75.48
2022-11-21T00:13:12.528Z,75.59
2022-11-21T00:15:39.082Z,75.57
2022-11-21T00:18:05.653Z,76.03
2022-11-21T00:20:32.864Z,76.07
2022-11-21T00:22:59.380Z,76.20
2022-11-21T00:25:25.948Z,76.09
2022-11-21T00:27:52.642Z,76.85
2022-11-21T00:30:19.255Z,77.10
2022-11-21T00:32:45.782Z,76.69
2022-11-21T00:35:13.254Z,76.71
2022-11-21T00:37:41.014Z,76.95
2022-11-21T00:40:07.863Z,77.46
2022-11-21T00:42:34.471Z,77.90
2022-11-21T00:45:01.073Z,77.03
2022-11-21T00:47:27.562Z,77.35
2022-11-21T00:49:54.063Z,77.52
2022-11-21T00:52:20.594Z,77.32
2022-11-21T00:54:47.684Z,77.57
2022-11-21T00:57:14.250Z,76.94
2022-11-21T00:59:41.254Z,77.29
2022-11-21T01:02:07.792Z,77.18
2022-11-21T01:04:34.578Z,77.62
2022-11-21T01:07:01.255Z,77.79
2022-11-21T01:09:28.831Z,77.25
2022-11-21T01:11:57.766Z,77.39
2022-11-21T01:14:28.902Z,77.96
2022-11-21T01:16:55.910Z,77.77
2022-11-21T01:19:23.561Z,77.45
2022-11-21T01:21:50.587Z,77.47
2022-11-21T01:24:17.438Z,77.26
2022-11-21T01:26:44.053Z,77.49
2022-11-21T01:29:10.851Z,77.33
2022-11-21T01:31:42.827Z,77.05
2022-11-21T01:34:11.635Z,77.69
2022-11-21T01:36:40.347Z,77.86
2022-11-21T01:39:07.335Z,77.75
2022-11-21T01:41:38.745Z,77.92
2022-11-21T01:44:23.696Z,78.01
2022-11-21T01:46:50.619Z,78.42
2022-11-21T01:49:17.161Z,78.09
2022-11-21T01:51:50.847Z,78.77
2022-11-21T01:54:17.381Z,78.61
2022-11-21T01:56:48.335Z,78.72
2022-11-21T01:59:17.034Z,79.00
2022-11-21T02:01:43.976Z,79.02
2022-11-21T02:04:10.521Z,79.04
2022-11-21T02:06:37.871Z,78.98
2022-11-21T02:09:04.855Z,78.61
2022-11-21T02:11:50.072Z,78.75
2022-11-21T02:14:16.804Z,78.96
2022-11-21T02:16:44.195Z,78.90
2022-11-21T02:19:13.173Z,78.62
2022-11-21T02:21:44.516Z,79.19
2022-11-21T02:24:16.909Z,79.00
2022-11-21T02:26:43.637Z,78.58
2022-11-21T02:29:10.671Z,78.66
2022-11-21T02:31:37.951Z,78.53
2022-11-21T02:34:04.727Z,78.60
2022-11-21T02:36:42.810Z,78.55
2022-11-21T02:39:10.910Z,78.43
2022-11-21T02:41:38.029Z,78.34
2022-11-21T02:44:30.964Z,78.17
2022-11-21T02:46:57.566Z,78.35
2022-11-21T02:49:46.467Z,78.97
2022-11-21T02:52:12.935Z,78.68
2022-11-21T02:54:39.409Z,78.79
2022-11-21T02:57:05.902Z,78.58
2022-11-21T02:59:32.382Z,78.94
2022-11-21T03:02:02.758Z,78.62
2022-11-21T03:04:29.685Z,78.37
2022-11-21T03:06:56.471Z,78.10
2022-11-21T03:09:23.017Z,78.81
2022-11-21T03:11:49.675Z,78.63
2022-11-21T03:14:16.184Z,78.55
2022-11-21T03:16:42.753Z,77.90
2022-11-21T03:19:09.293Z,78.00
2022-11-21T03:21:36.279Z,77.95
2022-11-21T03:24:03.209Z,78.10
2022-11-21T03:26:29.741Z,78.15
2022-11-21T03:28:56.227Z,78.22
2022-11-21T03:31:22.775Z,77.96
2022-11-21T03:33:49.317Z,78.51
2022-11-21T03:36:16.140Z,78.46
2022-11-21T03:38:42.732Z,78.40
2022-11-21T03:41:29.346Z,78.26
2022-11-21T03:43:56.573Z,78.50
2022-11-21T03:46:23.316Z,78.32
2022-11-21T03:48:49.803Z,78.09
2022-11-21T03:51:16.293Z,77.99
2022-11-21T03:53:42.916Z,77.95
2022-11-21T03:56:09.426Z,78.03
2022-11-21T03:58:36.073Z,77.20
2022-11-21T04:01:03.093Z,77.83
2022-11-21T04:03:30.142Z,77.45
2022-11-21T04:05:56.626Z,78.37
2022-11-21T04:08:23.195Z,78.36
2022-11-21T04:10:50.290Z,77.76
2022-11-21T04:13:17.071Z,77.97
2022-11-21T04:15:43.767Z,77.84
2022-11-21T04:18:10.352Z,77.61
2022-11-21T04:20:37.124Z,77.87
2022-11-21T04:23:16.276Z,77.52
2022-11-21T04:25:43.353Z,77.46
2022-11-21T04:28:12.541Z,77.66
2022-11-21T04:30:39.591Z,77.65
2022-11-21T04:33:06.123Z,77.61
2022-11-21T04:35:32.726Z,77.94
2022-11-21T04:37:59.202Z,77.73
2022-11-21T04:40:25.749Z,77.52
2022-11-21T04:42:52.320Z,77.80
2022-11-21T04:45:18.814Z,77.97
2022-11-21T04:47:46.464Z,78.28
2022-11-21T04:50:14.390Z,77.36
2022-11-21T04:52:41.397Z,78.25
2022-11-21T04:55:08.879Z,78.31
2022-11-21T04:57:35.589Z,77.98
2022-11-21T05:00:02.156Z,78.07
2022-11-21T05:02:28.646Z,77.52
2022-11-21T05:04:55.211Z,78.23
2022-11-21T05:07:21.810Z,77.77
2022-11-21T05:09:48.423Z,78.01
2022-11-21T05:12:33.370Z,77.99
2022-11-21T05:14:59.902Z,76.61
2022-11-21T05:17:27.801Z,77.39
2022-11-21T05:19:54.295Z,77.54
2022-11-21T05:22:20.816Z,77.41
2022-11-21T05:24:47.398Z,77.30
2022-11-21T05:27:13.896Z,77.45
2022-11-21T05:29:40.447Z,77.32
2022-11-21T05:32:06.978Z,77.38
2022-11-21T05:34:33.631Z,77.21
2022-11-21T05:37:00.175Z,77.22
2022-11-21T05:39:26.904Z,77.03
2022-11-21T05:41:57.236Z,76.86
2022-11-21T05:44:28.324Z,77.09
2022-11-21T05:46:54.999Z,76.58
2022-11-21T05:49:21.626Z,76.63
2022-11-21T05:51:48.144Z,77.63
2022-11-21T05:54:15.054Z,76.94
2022-11-21T05:56:41.571Z,76.43
2022-11-21T05:59:08.702Z,76.75
2022-11-21T06:01:53.770Z,76.66
2022-11-21T06:04:20.483Z,76.79
2022-11-21T06:06:47.055Z,77.00
2022-11-21T06:09:14.099Z,76.97
2022-11-21T06:11:40.624Z,76.70
2022-11-21T06:14:07.144Z,76.69
2022-11-21T06:16:33.602Z,76.98
2022-11-21T06:19:00.091Z,76.86
2022-11-21T06:21:28.857Z,76.71
2022-11-21T06:23:56.043Z,76.93
2022-11-21T06:26:24.029Z,76.88
2022-11-21T06:28:50.718Z,77.28
2022-11-21T06:31:19.127Z,77.48
2022-11-21T06:33:45.882Z,77.58
2022-11-21T06:36:14.057Z,77.24
2022-11-21T06:38:40.642Z,77.34
2022-11-21T06:41:08.569Z,77.04
2022-11-21T06:43:35.183Z,77.16
2022-11-21T06:46:04.107Z,77.27
2022-11-21T06:48:31.546Z,76.80
2022-11-21T06:50:58.595Z,76.95
2022-11-21T06:53:25.075Z,77.06
2022-11-21T06:55:51.617Z,76.96
2022-11-21T06:58:18.197Z,77.05
2022-11-21T07:00:44.694Z,77.10
2022-11-21T07:03:11.218Z,77.29
2022-11-21T07:05:37.796Z,76.96
2022-11-21T07:08:07.978Z,76.97
2022-11-21T07:10:42.521Z,77.23
2022-11-21T07:13:21.561Z,77.46
2022-11-21T07:15:49.569Z,76.98
2022-11-21T07:18:16.052Z,77.07
2022-11-21T07:20:42.625Z,77.26
2022-11-21T07:23:09.498Z,77.25
2022-11-21T07:25:36.935Z,77.28
2022-11-21T07:28:04.352Z,77.37
2022-11-21T07:30:31.006Z,77.34
2022-11-21T07:33:01.199Z,77.37
2022-11-21T07:35:27.808Z,76.65
2022-11-21T07:37:54.468Z,77.02
2022-11-21T07:40:21.111Z,76.65
2022-11-21T07:42:47.862Z,77.18
2022-11-21T07:45:14.917Z,76.55
2022-11-21T07:47:41.692Z,76.92
2022-11-21T07:50:08.917Z,76.13
2022-11-21T07:52:35.984Z,76.34
2022-11-21T07:55:03.757Z,76.20
2022-11-21T07:57:30.940Z,76.79
2022-11-21T07:59:57.435Z,75.99
2022-11-21T08:02:26.994Z,76.17
2022-11-21T08:04:53.691Z,76.79
2022-11-21T08:07:20.900Z,76.53
2022-11-21T08:09:47.488Z,75.80
2022-11-21T08:12:14.175Z,75.65
2022-11-21T08:14:40.767Z,75.97
2022-11-21T08:17:07.507Z,75.00
2022-11-21T08:19:34.297Z,75.98
2022-11-21T08:22:00.952Z,75.56
2022-11-21T08:24:27.550Z,75.43
2022-11-21T08:26:54.066Z,75.57
2022-11-21T08:29:20.641Z,75.47
2022-11-21T08:31:47.211Z,74.48
2022-11-21T08:34:14.791Z,73.68
2022-11-21T08:36:41.387Z,73.91
2022-11-21T08:39:07.869Z,74.76
2022-11-21T08:41:52.709Z,73.70
2022-11-21T08:44:19.278Z,74.71
2022-11-21T08:46:46.343Z,74.84
2022-11-21T08:49:12.837Z,75.14
2022-11-21T08:51:39.980Z,73.22
2022-11-21T08:54:06.649Z,71.64
2022-11-21T08:56:33.154Z,73.61
2022-11-21T08:58:59.702Z,74.20
2022-11-21T09:01:26.279Z,74.31
2022-11-21T09:03:52.882Z,72.01
2022-11-21T09:06:19.422Z,73.13
2022-11-21T09:08:47.056Z,73.86
2022-11-21T09:11:13.617Z,73.19
2022-11-21T09:13:40.200Z,73.10
2022-11-21T09:16:25.246Z,72.94
2022-11-21T09:18:52.264Z,72.32
2022-11-21T09:21:19.253Z,72.80
2022-11-21T09:23:46.916Z,72.93
2022-11-21T09:26:13.859Z,72.29
2022-11-21T09:28:41.353Z,71.87
2022-11-21T09:31:07.983Z,72.22
2022-11-21T09:33:34.442Z,72.14
2022-11-21T09:36:01.072Z,72.10
2022-11-21T09:38:27.776Z,71.29
2022-11-21T09:41:00.548Z,72.15
2022-11-21T09:43:36.375Z,71.46
2022-11-21T09:46:02.890Z,71.90
2022-11-21T09:48:30.759Z,71.69
2022-11-21T09:50:59.274Z,72.58
2022-11-21T09:53:27.684Z,73.09
2022-11-21T09:56:07.465Z,72.23
2022-11-21T09:58:34.053Z,71.22
2022-11-21T10:01:00.703Z,68.83
2022-11-21T10:03:29.416Z,68.33
2022-11-21T10:06:07.038Z,67.66
2022-11-21T10:08:52.484Z,68.48
2022-11-21T10:11:25.641Z,67.02
2022-11-21T10:14:04.516Z,68.77
2022-11-21T10:16:44.778Z,68.59
2022-11-21T10:19:26.590Z,63.72
2022-11-21T10:21:59.644Z,67.76
2022-11-21T10:24:36.178Z,68.37
2022-11-21T10:27:03.731Z,69.82
2022-11-21T10:29:38.027Z,65.61
2022-11-21T10:32:13.369Z,68.10
2022-11-21T10:34:39.926Z,68.67
2022-11-21T10:37:16.701Z,64.04
2022-11-21T10:39:44.314Z,63.97
2022-11-21T10:42:26.151Z,68.16
2022-11-21T10:45:11.205Z,67.98
2022-11-21T10:47:37.956Z,66.31
2022-11-21T10:50:10.745Z,65.88
2022-11-21T10:52:43.263Z,65.83
2022-11-21T10:55:11.338Z,65.21
2022-11-21T10:57:48.100Z,66.09
2022-11-21T11:00:15.212Z,65.62
2022-11-21T11:02:57.056Z,64.31
2022-11-21T11:05:25.018Z,65.21
2022-11-21T11:08:08.344Z,66.13
2022-11-21T11:10:36.346Z,66.97
2022-11-21T11:13:45.164Z,71.09
2022-11-21T11:16:11.124Z,72.71
2022-11-21T11:18:38.448Z,74.03
2022-11-21T11:21:21.654Z,74.76
2022-11-21T11:23:51.612Z,75.71
2022-11-21T11:26:28.204Z,75.51
2022-11-21T11:29:14.440Z,75.71
2022-11-21T11:31:45.981Z,75.45
2022-11-21T11:34:14.070Z,75.21
2022-11-21T11:36:54.383Z,74.64
2022-11-21T11:39:40.419Z,75.08
2022-11-21T11:42:37.991Z,75.56
2022-11-21T11:45:26.617Z,75.47
2022-11-21T11:47:55.209Z,75.45
2022-11-21T11:50:32.000Z,76.42
2022-11-21T11:53:07.075Z,76.22
2022-11-21T11:55:36.625Z,76.71
2022-11-21T11:58:03.842Z,76.78
2022-11-21T12:00:32.667Z,76.49
2022-11-21T12:03:02.276Z,76.30
2022-11-21T12:05:28.989Z,75.73
2022-11-21T12:11:12.507Z,76.59
2022-11-21T12:13:39.440Z,76.76
2022-11-21T12:16:13.220Z,76.00
2022-11-21T12:18:44.352Z,75.49
2022-11-21T12:21:20.671Z,74.46
2022-11-21T12:23:51.217Z,75.22
2022-11-21T12:26:20.734Z,75.19
2022-11-21T12:28:54.828Z,75.10
2022-11-21T12:31:40.054Z,74.58
2022-11-21T12:34:23.585Z,73.93
2022-11-21T12:36:53.734Z,74.41
2022-11-21T12:39:20.247Z,74.53
2022-11-21T12:42:14.841Z,74.65
2022-11-21T12:44:50.504Z,75.15
2022-11-21T12:48:00.564Z,74.91
2022-11-21T12:50:54.191Z,74.04
2022-11-21T12:53:41.864Z,74.84
2022-11-21T12:56:11.450Z,74.92
2022-11-21T12:58:39.511Z,74.96
2022-11-21T13:01:19.699Z,74.67
2022-11-21T13:03:55.540Z,74.43
2022-11-21T13:06:28.856Z,75.05
2022-11-21T13:08:56.127Z,74.93
2022-11-21T13:11:47.032Z,73.72
2022-11-21T13:14:22.799Z,66.20
2022-11-21T13:16:58.595Z,67.18
2022-11-21T13:19:25.128Z,65.00
2022-11-21T13:21:53.774Z,68.81
2022-11-21T13:24:38.938Z,67.55
2022-11-21T13:27:07.192Z,68.67
2022-11-21T13:29:33.768Z,69.87
2022-11-21T13:32:05.823Z,69.37
2022-11-21T13:34:32.458Z,67.48
2022-11-21T13:36:59.053Z,69.18
2022-11-21T13:39:27.089Z,69.74
2022-11-21T13:42:20.502Z,67.21
2022-11-21T13:44:47.728Z,67.08
2022-11-21T13:47:26.589Z,68.61
2022-11-21T13:49:53.236Z,69.24
2022-11-21T13:52:20.124Z,69.94
2022-11-21T13:54:55.518Z,70.37
2022-11-21T13:57:31.098Z,70.38
2022-11-21T13:59:57.695Z,67.53
2022-11-21T14:02:27.189Z,67.54
2022-11-21T14:05:12.610Z,68.01
2022-11-21T14:07:39.870Z,68.48
2022-11-21T14:10:17.994Z,68.52
2022-11-21T14:12:47.159Z,68.96
2022-11-21T14:15:32.612Z,69.04
2022-11-21T14:17:59.379Z,69.58
2022-11-21T14:20:27.847Z,69.55
2022-11-21T14:22:54.653Z,69.09
2022-11-21T14:25:26.364Z,69.29
2022-11-21T14:27:53.398Z,69.02
2022-11-21T14:30:32.242Z,70.49
2022-11-21T14:33:17.730Z,70.65
2022-11-21T14:35:47.477Z,71.37
2022-11-21T14:38:14.044Z,71.71
2022-11-21T14:40:40.628Z,72.21
2022-11-21T14:43:25.946Z,72.24
2022-11-21T14:45:52.657Z,72.42
2022-11-21T14:48:25.148Z,72.89
2022-11-21T14:50:51.821Z,73.17
2022-11-21T14:53:18.406Z,73.41
2022-11-21T14:55:49.365Z,73.56
2022-11-21T14:58:15.922Z,73.29
2022-11-21T15:03:29.242Z,73.76
2022-11-21T15:06:05.822Z,73.54
2022-11-21T15:09:03.249Z,73.85
2022-11-21T15:11:20.104Z,74.21
2022-11-21T15:16:34.356Z,74.29
2022-11-21T15:19:01.010Z,74.05
2022-11-21T15:21:27.570Z,74.23
2022-11-21T15:23:55.089Z,73.88
2022-11-21T15:26:32.189Z,73.88
2022-11-21T15:29:00.675Z,74.02
2022-11-21T15:31:27.671Z,73.10
2022-11-21T15:36:45.124Z,73.49
2022-11-21T15:39:21.985Z,73.72
2022-11-21T15:41:48.676Z,73.96
2022-11-21T15:44:19.551Z,74.24
2022-11-21T15:46:47.207Z,74.16
2022-11-21T15:49:32.036Z,74.21
2022-11-21T15:52:07.721Z,74.63
2022-11-21T15:54:47.355Z,74.13
2022-11-21T15:57:16.657Z,74.08
2022-11-21T15:59:43.875Z,73.91
2022-11-21T16:02:12.359Z,74.07
2022-11-21T16:04:39.000Z,73.62
2022-11-21T16:07:05.708Z,73.58
2022-11-21T16:09:32.442Z,72.83
2022-11-21T16:11:59.089Z,73.55
2022-11-21T16:14:26.275Z,73.25
2022-11-21T16:16:53.021Z,73.61
2022-11-21T16:19:19.585Z,73.69
2022-11-21T16:21:46.232Z,73.56
2022-11-21T16:24:12.732Z,73.63
2022-11-21T16:26:39.430Z,73.58
2022-11-21T16:29:06.408Z,73.42
2022-11-21T16:31:33.069Z,73.67
2022-11-21T16:34:00.673Z,74.02
2022-11-21T16:36:28.431Z,73.99
2022-11-21T16:38:55.025Z,74.29
2022-11-21T16:41:22.594Z,74.49
2022-11-21T16:43:50.208Z,74.65
2022-11-21T16:46:17.016Z,75.07
2022-11-21T16:48:43.571Z,74.69
2022-11-21T16:51:10.591Z,74.82
2022-11-21T16:53:37.433Z,75.13
2022-11-21T16:56:03.956Z,74.77
2022-11-21T16:58:30.517Z,74.73
2022-11-21T17:00:57.069Z,74.02
2022-11-21T17:03:23.653Z,74.37
2022-11-21T17:05:59.779Z,74.22
2022-11-21T17:08:28.034Z,74.10
2022-11-21T17:10:54.688Z,74.03
2022-11-21T17:13:21.932Z,74.35
2022-11-21T17:15:48.723Z,74.78
2022-11-21T17:18:15.293Z,74.57
2022-11-21T17:20:41.855Z,74.91
2022-11-21T17:23:08.373Z,75.31
2022-11-21T17:25:34.908Z,75.21
2022-11-21T17:28:01.406Z,75.43
2022-11-21T17:30:28.428Z,75.50
2022-11-21T17:32:55.343Z,75.55
2022-11-21T17:35:21.844Z,75.62
2022-11-21T17:37:48.353Z,75.44
2022-11-21T17:40:14.875Z,75.54
2022-11-21T17:42:43.346Z,75.32
2022-11-21T17:45:10.054Z,74.73
2022-11-21T17:47:36.608Z,74.04
2022-11-21T17:50:06.195Z,74.51
2022-11-21T17:52:32.978Z,74.69
2022-11-21T17:54:59.553Z,75.03
2022-11-21T17:57:26.335Z,75.25
2022-11-21T17:59:52.991Z,74.65
2022-11-21T18:02:21.805Z,74.34
2022-11-21T18:04:48.910Z,74.65
2022-11-21T18:07:15.543Z,74.25
2022-11-21T18:09:42.044Z,74.62
2022-11-21T18:12:08.533Z,75.13
2022-11-21T18:14:35.020Z,75.17
2022-11-21T18:17:01.544Z,75.11
2022-11-21T18:19:28.311Z,75.63
2022-11-21T18:21:54.980Z,75.62
2022-11-21T18:24:21.546Z,75.77
2022-11-21T18:26:48.107Z,75.18
2022-11-21T18:32:01.291Z,74.72
2022-11-21T18:34:28.312Z,74.82
2022-11-21T18:36:54.795Z,74.90
2022-11-21T18:39:24.964Z,75.02
2022-11-21T18:41:51.672Z,74.62
2022-11-21T18:44:22.248Z,74.42
2022-11-21T18:46:49.434Z,74.67
2022-11-21T18:49:16.005Z,74.40
2022-11-21T18:51:42.488Z,74.41
2022-11-21T18:54:11.180Z,73.95
2022-11-21T18:56:38.239Z,73.85
2022-11-21T18:59:06.458Z,74.08
2022-11-21T19:01:34.241Z,74.36
2022-11-21T19:04:00.861Z,74.11
2022-11-21T19:06:27.538Z,73.92
2022-11-21T19:08:54.741Z,73.33
2022-11-21T19:11:22.265Z,73.28
2022-11-21T19:13:48.962Z,73.64
2022-11-21T19:16:19.987Z,73.53
2022-11-21T19:19:05.528Z,73.78
2022-11-21T19:21:35.457Z,73.92
2022-11-21T19:24:03.092Z,73.96
2022-11-21T19:26:30.814Z,74.27
2022-11-21T19:28:57.558Z,74.22
2022-11-21T19:31:24.114Z,74.37
2022-11-21T19:33:50.933Z,74.26
2022-11-21T19:36:18.410Z,74.34
2022-11-21T19:38:50.424Z,74.28
2022-11-21T19:41:20.889Z,74.33
2022-11-21T19:43:47.509Z,74.01
2022-11-21T19:46:14.701Z,73.75
2022-11-21T19:48:41.656Z,73.89
2022-11-21T19:51:08.457Z,74.15
2022-11-21T19:53:35.877Z,74.31
2022-11-21T19:56:11.958Z,74.29
2022-11-21T19:58:39.723Z,74.32
2022-11-21T20:01:09.683Z,74.72
2022-11-21T20:03:36.987Z,74.43
2022-11-21T20:06:04.278Z,74.07
2022-11-21T20:08:30.806Z,74.04
2022-11-21T20:11:12.175Z,74.02
2022-11-21T20:13:39.910Z,72.84
2022-11-21T20:16:08.541Z,73.06
2022-11-21T20:18:35.959Z,73.29
2022-11-21T20:21:09.269Z,73.24
2022-11-21T20:23:36.058Z,73.77
2022-11-21T20:26:02.681Z,73.50
2022-11-21T20:28:29.168Z,73.34
2022-11-21T20:30:55.675Z,73.46
2022-11-21T20:33:22.170Z,72.81
2022-11-21T20:35:48.678Z,71.86
2022-11-21T20:38:18.897Z,71.75
2022-11-21T20:40:52.246Z,72.11
2022-11-21T20:43:18.767Z,72.04
2022-11-21T20:48:33.379Z,72.33
2022-11-21T20:52:49.806Z,72.20
2022-11-21T20:54:40.237Z,72.26
2022-11-21T20:57:14.482Z,71.96
2022-11-21T21:00:06.155Z,70.66
2022-11-21T21:02:33.344Z,72.17
2022-11-21T21:05:01.156Z,72.78
2022-11-21T21:07:27.764Z,72.82
2022-11-21T21:09:55.939Z,73.41
2022-11-21T21:12:23.986Z,73.96
2022-11-21T21:14:50.520Z,73.83
2022-11-21T21:17:17.041Z,74.13
2022-11-21T21:19:43.637Z,74.23
2022-11-21T21:22:10.233Z,74.09
2022-11-21T21:24:36.749Z,73.78
2022-11-21T21:27:03.290Z,74.57
2022-11-21T21:29:30.321Z,74.46
2022-11-21T21:31:57.518Z,74.49
2022-11-21T21:34:24.397Z,74.12
2022-11-21T21:36:51.310Z,73.69
2022-11-21T21:39:17.962Z,73.87
2022-11-21T21:41:47.909Z,74.13
2022-11-21T21:44:14.943Z,74.35
2022-11-21T21:46:44.995Z,73.06
2022-11-21T21:49:11.879Z,73.69
2022-11-21T21:51:38.657Z,73.46
2022-11-21T21:54:05.468Z,73.54
2022-11-21T21:56:32.140Z,73.54
2022-11-21T21:59:01.563Z,72.97
2022-11-21T22:01:29.068Z,73.43
2022-11-21T22:03:57.113Z,73.19
2022-11-21T22:06:23.673Z,73.55
2022-11-21T22:08:50.379Z,72.65
2022-11-21T22:11:21.087Z,72.92
2022-11-21T22:13:50.866Z,73.02
2022-11-21T22:16:17.553Z,73.41
2022-11-21T22:18:44.066Z,72.48
2022-11-21T22:21:14.476Z,72.87
2022-11-21T22:23:56.472Z,73.01
2022-11-21T22:26:27.673Z,72.47
2022-11-21T22:28:54.312Z,72.18
2022-11-21T22:31:20.882Z,72.63
2022-11-21T22:33:47.844Z,71.94
2022-11-21T22:36:15.485Z,73.00
2022-11-21T22:38:42.497Z,72.98
2022-11-21T22:41:15.917Z,72.86
2022-11-21T22:43:42.565Z,73.07
2022-11-21T22:46:09.964Z,73.34
2022-11-21T22:48:36.655Z,73.59
2022-11-21T22:51:03.343Z,73.96
2022-11-21T22:53:29.909Z,73.80
2022-11-21T22:56:06.397Z,74.06
2022-11-21T22:58:33.686Z,74.20
2022-11-21T23:01:06.077Z,74.89
2022-11-21T23:03:32.953Z,74.73
2022-11-21T23:06:00.196Z,75.00
2022-11-21T23:08:26.721Z,75.32
2022-11-21T23:10:53.203Z,75.52
2022-11-21T23:13:19.753Z,75.45
2022-11-21T23:15:46.295Z,75.51
2022-11-21T23:18:12.833Z,75.65
2022-11-21T23:20:39.428Z,75.38
2022-11-21T23:23:05.941Z,75.56
2022-11-21T23:25:32.427Z,75.76
2022-11-21T23:27:59.001Z,75.98
2022-11-21T23:30:25.502Z,76.09
2022-11-21T23:32:52.031Z,76.46
2022-11-21T23:35:18.558Z,76.68
2022-11-21T23:37:45.029Z,76.94
2022-11-21T23:40:11.722Z,77.11
2022-11-21T23:42:38.186Z,76.97
2022-11-21T23:45:04.935Z,77.36
2022-11-21T23:47:31.467Z,77.42
2022-11-21T23:49:58.027Z,77.11
2022-11-21T23:52:24.554Z,76.99
2022-11-21T23:54:51.057Z,77.10
2022-11-21T23:57:17.665Z,77.13
2022-11-21T23:59:44.165Z,77.09
